sensor_id;sensor_type;location;lat;lon;timestamp;pressure;altitude;pressure_sealevel;temperature;humidity
68965;BME280;56017;48.680;8.998;2023-04-25T00:01:54;96090;;;9;78
68965;BME280;56017;48.680;8.998;2023-04-25T00:04:25;96090;;;9.1;77.5
68965;BME280;56017;48.680;8.998;2023-04-25T00:06:56;96090;;;9.1;77
68965;BME280;56017;48.680;8.998;2023-04-25T00:11:57;96090;;;9.1;77
68965;BME280;56017;48.680;8.998;2023-04-25T00:14:48;96090;;;9;77.5
68965;BME280;56017;48.680;8.998;2023-04-25T00:17:13;96090;;;9;77.5
68965;BME280;56017;48.680;8.998;2023-04-25T00:19:49;96090;;;9;77
68965;BME280;56017;48.680;8.998;2023-04-25T00:22:12;96090;;;9;77
68965;BME280;56017;48.680;8.998;2023-04-25T00:24:37;96090;;;9;77
68965;BME280;56017;48.680;8.998;2023-04-25T00:27:07;96090;;;8.9;77.5
68965;BME280;56017;48.680;8.998;2023-04-25T00:29:38;96090;;;8.9;77.5
68965;BME280;56017;48.680;8.998;2023-04-25T00:32:10;96090;;;9;77.5
68965;BME280;56017;48.680;8.998;2023-04-25T00:37:17;96090;;;9;77.5
68965;BME280;56017;48.680;8.998;2023-04-25T00:40:01;96080;;;8.9;77.5
68965;BME280;56017;48.680;8.998;2023-04-25T00:42:18;96080;;;9;77
68965;BME280;56017;48.680;8.998;2023-04-25T00:47:12;96090;;;9;77
68965;BME280;56017;48.680;8.998;2023-04-25T00:49:43;96080;;;8.9;77
68965;BME280;56017;48.680;8.998;2023-04-25T00:52:14;96080;;;8.8;77.5
68965;BME280;56017;48.680;8.998;2023-04-25T00:54:45;96080;;;8.8;77.5
68965;BME280;56017;48.680;8.998;2023-04-25T00:57:09;96080;;;8.9;77
68965;BME280;56017;48.680;8.998;2023-04-25T00:59:39;96070;;;8.9;77.5
68965;BME280;56017;48.680;8.998;2023-04-25T01:02:10;96060;;;8.9;77.5
68965;BME280;56017;48.680;8.998;2023-04-25T01:04:41;96070;;;8.9;77.5
68965;BME280;56017;48.680;8.998;2023-04-25T01:07:12;96060;;;8.9;77.5
68965;BME280;56017;48.680;8.998;2023-04-25T01:12:13;96070;;;9;77
68965;BME280;56017;48.680;8.998;2023-04-25T01:17:14;96080;;;8.4;76.5
68965;BME280;56017;48.680;8.998;2023-04-25T01:24:59;96070;;;6.9;79
68965;BME280;56017;48.680;8.998;2023-04-25T01:27:36;96070;;;6.8;79
68965;BME280;56017;48.680;8.998;2023-04-25T01:29:59;96070;;;6.7;79
68965;BME280;56017;48.680;8.998;2023-04-25T01:32:36;96070;;;6.7;79.5
68965;BME280;56017;48.680;8.998;2023-04-25T01:34:53;96070;;;6.8;79
68965;BME280;56017;48.680;8.998;2023-04-25T01:37:24;96070;;;6.8;79
68965;BME280;56017;48.680;8.998;2023-04-25T01:39:55;96070;;;6.9;79
68965;BME280;56017;48.680;8.998;2023-04-25T01:42:33;96070;;;6.9;79
68965;BME280;56017;48.680;8.998;2023-04-25T01:52:35;96070;;;7.1;78
68965;BME280;56017;48.680;8.998;2023-04-25T01:55:12;96060;;;7.1;78
68965;BME280;56017;48.680;8.998;2023-04-25T01:57:36;96050;;;7.1;78
68965;BME280;56017;48.680;8.998;2023-04-25T02:00:03;96050;;;7.1;78
68965;BME280;56017;48.680;8.998;2023-04-25T02:02:31;96050;;;7.1;78
68965;BME280;56017;48.680;8.998;2023-04-25T02:05:02;96050;;;7.2;78
68965;BME280;56017;48.680;8.998;2023-04-25T02:07:33;96050;;;7.2;78
68965;BME280;56017;48.680;8.998;2023-04-25T02:10:04;96050;;;7.3;78
68965;BME280;56017;48.680;8.998;2023-04-25T02:12:41;96050;;;7.3;78
68965;BME280;56017;48.680;8.998;2023-04-25T02:15:11;96040;;;7.3;78
68965;BME280;56017;48.680;8.998;2023-04-25T02:20:05;96040;;;7.2;78
68965;BME280;56017;48.680;8.998;2023-04-25T02:22:36;96040;;;7.2;78.5
68965;BME280;56017;48.680;8.998;2023-04-25T02:25:07;96040;;;7.2;78.5
68965;BME280;56017;48.680;8.998;2023-04-25T02:27:38;96040;;;7.2;78
68965;BME280;56017;48.680;8.998;2023-04-25T02:30:09;96040;;;7.3;78
68965;BME280;56017;48.680;8.998;2023-04-25T02:32:40;96040;;;7.3;78
68965;BME280;56017;48.680;8.998;2023-04-25T02:35:11;96040;;;7.3;78
68965;BME280;56017;48.680;8.998;2023-04-25T02:37:42;96040;;;7.3;78
68965;BME280;56017;48.680;8.998;2023-04-25T02:40:13;96040;;;7.3;78
68965;BME280;56017;48.680;8.998;2023-04-25T02:42:44;96040;;;7.3;78
68965;BME280;56017;48.680;8.998;2023-04-25T02:45:15;96040;;;7.4;78
68965;BME280;56017;48.680;8.998;2023-04-25T02:47:45;96040;;;7.4;77.5
68965;BME280;56017;48.680;8.998;2023-04-25T02:50:16;96030;;;7.4;77.5
68965;BME280;56017;48.680;8.998;2023-04-25T02:52:47;96030;;;7.4;77.5
68965;BME280;56017;48.680;8.998;2023-04-25T02:55:18;96030;;;7.4;77.5
68965;BME280;56017;48.680;8.998;2023-04-25T02:57:49;96030;;;7.4;77.5
68965;BME280;56017;48.680;8.998;2023-04-25T03:00:26;96030;;;7.4;78
68965;BME280;56017;48.680;8.998;2023-04-25T03:03:09;96030;;;7.5;77.5
68965;BME280;56017;48.680;8.998;2023-04-25T03:05:27;96030;;;7.5;77.5
68965;BME280;56017;48.680;8.998;2023-04-25T03:07:50;96020;;;7.5;77.5
68965;BME280;56017;48.680;8.998;2023-04-25T03:10:21;96030;;;7.5;77.5
68965;BME280;56017;48.680;8.998;2023-04-25T03:12:52;96020;;;7.5;77.5
68965;BME280;56017;48.680;8.998;2023-04-25T03:15:23;96020;;;7.6;77.5
68965;BME280;56017;48.680;8.998;2023-04-25T03:18:01;96020;;;7.6;77.5
68965;BME280;56017;48.680;8.998;2023-04-25T03:20:31;96010;;;7.6;77.5
68965;BME280;56017;48.680;8.998;2023-04-25T03:23:14;96010;;;7.7;78
68965;BME280;56017;48.680;8.998;2023-04-25T03:25:31;96010;;;7.6;78
68965;BME280;56017;48.680;8.998;2023-04-25T03:27:56;96010;;;7.7;78
68965;BME280;56017;48.680;8.998;2023-04-25T03:30:33;96000;;;7.7;78
68965;BME280;56017;48.680;8.998;2023-04-25T03:32:57;96000;;;7.7;78
68965;BME280;56017;48.680;8.998;2023-04-25T03:35:35;96000;;;7.7;78
68965;BME280;56017;48.680;8.998;2023-04-25T03:38:00;96000;;;7.6;78
68965;BME280;56017;48.680;8.998;2023-04-25T03:40:30;96000;;;7.5;78
68965;BME280;56017;48.680;8.998;2023-04-25T03:43:08;96010;;;7.5;78
68965;BME280;56017;48.680;8.998;2023-04-25T03:45:32;96010;;;7.5;78
68965;BME280;56017;48.680;8.998;2023-04-25T03:48:23;96010;;;7.4;78
68965;BME280;56017;48.680;8.998;2023-04-25T03:50:47;96000;;;7.4;78
68965;BME280;56017;48.680;8.998;2023-04-25T03:53:10;96010;;;7.4;78
68965;BME280;56017;48.680;8.998;2023-04-25T03:58:04;96000;;;7.4;78
68965;BME280;56017;48.680;8.998;2023-04-25T04:00:35;96010;;;7.5;78
68965;BME280;56017;48.680;8.998;2023-04-25T04:03:05;96010;;;7.5;78
68965;BME280;56017;48.680;8.998;2023-04-25T04:05:37;96010;;;7.4;78
68965;BME280;56017;48.680;8.998;2023-04-25T04:08:13;96010;;;7.4;78.5
68965;BME280;56017;48.680;8.998;2023-04-25T04:10:44;96010;;;7.4;78.5
68965;BME280;56017;48.680;8.998;2023-04-25T04:15:38;96010;;;7.4;78
68965;BME280;56017;48.680;8.998;2023-04-25T04:18:09;96000;;;7.4;78
68965;BME280;56017;48.680;8.998;2023-04-25T04:20:39;96010;;;7.4;78
68965;BME280;56017;48.680;8.998;2023-04-25T04:25:41;96020;;;7.3;78
68965;BME280;56017;48.680;8.998;2023-04-25T04:28:12;96020;;;7.2;78
68965;BME280;56017;48.680;8.998;2023-04-25T04:30:43;96020;;;7.2;78
68965;BME280;56017;48.680;8.998;2023-04-25T04:33:14;96010;;;7.1;78
68965;BME280;56017;48.680;8.998;2023-04-25T04:35:46;96020;;;7.1;77.5
68965;BME280;56017;48.680;8.998;2023-04-25T04:38:16;96030;;;7.1;77.5
68965;BME280;56017;48.680;8.998;2023-04-25T04:40:47;96030;;;7.2;77.5
68965;BME280;56017;48.680;8.998;2023-04-25T04:43:18;96030;;;7.3;77.5
68965;BME280;56017;48.680;8.998;2023-04-25T04:48:24;96020;;;7.5;77.5
68965;BME280;56017;48.680;8.998;2023-04-25T04:50:51;96020;;;7.6;77.5
68965;BME280;56017;48.680;8.998;2023-04-25T04:53:29;96030;;;7.6;77.5
68965;BME280;56017;48.680;8.998;2023-04-25T04:56:00;96030;;;7.7;78
68965;BME280;56017;48.680;8.998;2023-04-25T04:58:25;96030;;;7.9;77.5
68965;BME280;56017;48.680;8.998;2023-04-25T05:01:02;96030;;;8.1;77
68965;BME280;56017;48.680;8.998;2023-04-25T05:03:32;96040;;;8.2;77
68965;BME280;56017;48.680;8.998;2023-04-25T05:08:26;96040;;;8.2;77
68965;BME280;56017;48.680;8.998;2023-04-25T05:10:57;96040;;;8.1;77
68965;BME280;56017;48.680;8.998;2023-04-25T05:13:28;96040;;;8.1;77.5
68965;BME280;56017;48.680;8.998;2023-04-25T05:15:59;96040;;;8;78
68965;BME280;56017;48.680;8.998;2023-04-25T05:21:08;96040;;;8;77.5
68965;BME280;56017;48.680;8.998;2023-04-25T05:23:45;96040;;;8;77.5
68965;BME280;56017;48.680;8.998;2023-04-25T05:26:07;96040;;;8;78
68965;BME280;56017;48.680;8.998;2023-04-25T05:28:32;96040;;;7.9;78
68965;BME280;56017;48.680;8.998;2023-04-25T05:31:03;96040;;;7.9;78
68965;BME280;56017;48.680;8.998;2023-04-25T05:33:34;96030;;;8.1;78
68965;BME280;56017;48.680;8.998;2023-04-25T05:36:05;96030;;;8.3;77.5
68965;BME280;56017;48.680;8.998;2023-04-25T05:38:41;96040;;;8.4;77
68965;BME280;56017;48.680;8.998;2023-04-25T05:41:18;96040;;;8.5;77
68965;BME280;56017;48.680;8.998;2023-04-25T05:46:06;96040;;;8.4;77
68965;BME280;56017;48.680;8.998;2023-04-25T05:48:37;96040;;;8.4;77
68965;BME280;56017;48.680;8.998;2023-04-25T05:51:09;96040;;;8.2;77
68965;BME280;56017;48.680;8.998;2023-04-25T05:53:39;96050;;;8.2;77.5
68965;BME280;56017;48.680;8.998;2023-04-25T05:56:16;96050;;;8.1;78
68965;BME280;56017;48.680;8.998;2023-04-25T05:58:53;96040;;;8.3;78
68965;BME280;56017;48.680;8.998;2023-04-25T06:01:16;96040;;;8.6;77.5
68965;BME280;56017;48.680;8.998;2023-04-25T06:03:41;96040;;;8.6;78
68965;BME280;56017;48.680;8.998;2023-04-25T06:06:12;96040;;;8.7;77.5
68965;BME280;56017;48.680;8.998;2023-04-25T06:08:43;96040;;;8.8;77.5
68965;BME280;56017;48.680;8.998;2023-04-25T06:11:14;96040;;;8.8;77.5
68965;BME280;56017;48.680;8.998;2023-04-25T06:13:45;96040;;;9;77.5
68965;BME280;56017;48.680;8.998;2023-04-25T06:16:15;96030;;;9.1;77.5
68965;BME280;56017;48.680;8.998;2023-04-25T06:18:46;96040;;;9.1;77.5
68965;BME280;56017;48.680;8.998;2023-04-25T06:21:17;96040;;;9.1;77.5
68965;BME280;56017;48.680;8.998;2023-04-25T06:23:48;96040;;;9.1;77.5
68965;BME280;56017;48.680;8.998;2023-04-25T06:26:19;96030;;;8.9;78
68965;BME280;56017;48.680;8.998;2023-04-25T06:28:50;96040;;;8.7;78
68965;BME280;56017;48.680;8.998;2023-04-25T06:33:52;96030;;;8.7;78
68965;BME280;56017;48.680;8.998;2023-04-25T06:36:23;96040;;;8.8;78
68965;BME280;56017;48.680;8.998;2023-04-25T06:38:54;96050;;;8.8;78
68965;BME280;56017;48.680;8.998;2023-04-25T06:41:25;96050;;;8.8;78
68965;BME280;56017;48.680;8.998;2023-04-25T06:43:56;96050;;;8.8;78
68965;BME280;56017;48.680;8.998;2023-04-25T06:46:27;96050;;;8.7;78
68965;BME280;56017;48.680;8.998;2023-04-25T06:48:58;96040;;;8.6;78
68965;BME280;56017;48.680;8.998;2023-04-25T06:51:29;96040;;;8.5;78.5
68965;BME280;56017;48.680;8.998;2023-04-25T06:54:00;96040;;;8.5;78.5
68965;BME280;56017;48.680;8.998;2023-04-25T06:56:31;96040;;;8.4;78.5
68965;BME280;56017;48.680;8.998;2023-04-25T06:59:02;96050;;;8.5;78.5
68965;BME280;56017;48.680;8.998;2023-04-25T07:01:33;96050;;;8.5;78.5
68965;BME280;56017;48.680;8.998;2023-04-25T07:04:04;96050;;;8.5;78
68965;BME280;56017;48.680;8.998;2023-04-25T07:09:08;96050;;;8.2;78.5
68965;BME280;56017;48.680;8.998;2023-04-25T07:11:43;96060;;;7.8;79.5
68965;BME280;56017;48.680;8.998;2023-04-25T07:14:14;96060;;;7.7;80
68965;BME280;56017;48.680;8.998;2023-04-25T07:16:39;96070;;;7.6;80
68965;BME280;56017;48.680;8.998;2023-04-25T07:19:10;96060;;;7.5;80
68965;BME280;56017;48.680;8.998;2023-04-25T07:24:12;96060;;;7.4;80
68965;BME280;56017;48.680;8.998;2023-04-25T07:26:49;96060;;;7.4;79.5
68965;BME280;56017;48.680;8.998;2023-04-25T07:29:19;96070;;;7.5;80
68965;BME280;56017;48.680;8.998;2023-04-25T07:34:20;96070;;;7.3;79.5
68965;BME280;56017;48.680;8.998;2023-04-25T07:36:51;96070;;;7.2;80
68965;BME280;56017;48.680;8.998;2023-04-25T07:39:27;96070;;;7;80
68965;BME280;56017;48.680;8.998;2023-04-25T07:41:51;96070;;;6.9;80
68965;BME280;56017;48.680;8.998;2023-04-25T07:44:20;96070;;;7.3;79.5
68965;BME280;56017;48.680;8.998;2023-04-25T07:46:50;96070;;;7.4;79
68965;BME280;56017;48.680;8.998;2023-04-25T07:49:21;96080;;;7.3;79
68965;BME280;56017;48.680;8.998;2023-04-25T07:52:04;96090;;;7.2;79.5
68965;BME280;56017;48.680;8.998;2023-04-25T07:54:22;96090;;;7.4;79
68965;BME280;56017;48.680;8.998;2023-04-25T07:59:15;96100;;;7.1;79.5
68965;BME280;56017;48.680;8.998;2023-04-25T08:01:46;96110;;;6.9;79.5
68965;BME280;56017;48.680;8.998;2023-04-25T08:04:17;96110;;;6.8;80
68965;BME280;56017;48.680;8.998;2023-04-25T08:06:48;96120;;;6.6;80
68965;BME280;56017;48.680;8.998;2023-04-25T08:11:56;96120;;;6.6;80
68965;BME280;56017;48.680;8.998;2023-04-25T08:14:39;96120;;;6.7;80
68965;BME280;56017;48.680;8.998;2023-04-25T08:19:33;96130;;;6.6;80
68965;BME280;56017;48.680;8.998;2023-04-25T08:21:57;96130;;;6.7;80
68965;BME280;56017;48.680;8.998;2023-04-25T08:24:41;96140;;;6.8;79.5
68965;BME280;56017;48.680;8.998;2023-04-25T08:29:34;96140;;;6.7;79.5
68965;BME280;56017;48.680;8.998;2023-04-25T08:31:58;96140;;;6.8;79.5
68965;BME280;56017;48.680;8.998;2023-04-25T08:34:41;96150;;;6.9;79.5
68965;BME280;56017;48.680;8.998;2023-04-25T08:36:58;96150;;;7.1;79
68965;BME280;56017;48.680;8.998;2023-04-25T08:39:36;96150;;;7.1;79
68965;BME280;56017;48.680;8.998;2023-04-25T08:41:58;96160;;;6.9;79
68965;BME280;56017;48.680;8.998;2023-04-25T08:44:42;96160;;;7;79.5
68965;BME280;56017;48.680;8.998;2023-04-25T08:46:59;96170;;;7;79
68965;BME280;56017;48.680;8.998;2023-04-25T08:49:35;96170;;;7;79
68965;BME280;56017;48.680;8.998;2023-04-25T08:52:00;96170;;;7;78.5
68965;BME280;56017;48.680;8.998;2023-04-25T08:54:43;96180;;;7;78.5
68965;BME280;56017;48.680;8.998;2023-04-25T08:57:00;96180;;;6.9;79
68965;BME280;56017;48.680;8.998;2023-04-25T08:59:43;96180;;;6.9;79
68965;BME280;56017;48.680;8.998;2023-04-25T09:02:00;96190;;;6.9;79
68965;BME280;56017;48.680;8.998;2023-04-25T09:04:43;96190;;;6.8;79
68965;BME280;56017;48.680;8.998;2023-04-25T09:07:06;96200;;;6.8;79.5
68965;BME280;56017;48.680;8.998;2023-04-25T09:12:00;96210;;;6.7;79.5
68965;BME280;56017;48.680;8.998;2023-04-25T09:14:31;96210;;;6.6;79.5
68965;BME280;56017;48.680;8.998;2023-04-25T09:19:34;96220;;;6.5;79.5
68965;BME280;56017;48.680;8.998;2023-04-25T09:22:03;96230;;;6.4;79.5
68965;BME280;56017;48.680;8.998;2023-04-25T09:24:47;96230;;;6.5;79.5
68965;BME280;56017;48.680;8.998;2023-04-25T09:27:11;96230;;;6.4;79.5
68965;BME280;56017;48.680;8.998;2023-04-25T09:29:35;96240;;;6.3;80
68965;BME280;56017;48.680;8.998;2023-04-25T09:32:12;96240;;;6.4;79.5
68965;BME280;56017;48.680;8.998;2023-04-25T09:34:50;96240;;;6.4;79.5
68965;BME280;56017;48.680;8.998;2023-04-25T09:39:28;96250;;;6.3;80
68965;BME280;56017;48.680;8.998;2023-04-25T09:42:00;96260;;;6.2;80
68965;BME280;56017;48.680;8.998;2023-04-25T09:44:30;96260;;;6.1;79.5
68965;BME280;56017;48.680;8.998;2023-04-25T09:47:09;96260;;;6;80
68965;BME280;56017;48.680;8.998;2023-04-25T09:49:32;96270;;;6;80
68965;BME280;56017;48.680;8.998;2023-04-25T09:52:13;96270;;;6;80
68965;BME280;56017;48.680;8.998;2023-04-25T09:54:34;96280;;;5.9;80
68965;BME280;56017;48.680;8.998;2023-04-25T09:59:35;96270;;;5.9;80
68965;BME280;56017;48.680;8.998;2023-04-25T10:02:14;96280;;;6;80
68965;BME280;56017;48.680;8.998;2023-04-25T10:04:38;96280;;;6;80.5
68965;BME280;56017;48.680;8.998;2023-04-25T10:09:47;96280;;;5.9;80
68965;BME280;56017;48.680;8.998;2023-04-25T10:12:11;96280;;;5.8;80
68965;BME280;56017;48.680;8.998;2023-04-25T10:14:41;96280;;;5.8;80.5
68965;BME280;56017;48.680;8.998;2023-04-25T10:17:19;96280;;;5.8;80.5
68965;BME280;56017;48.680;8.998;2023-04-25T10:19:43;96280;;;6;80
68965;BME280;56017;48.680;8.998;2023-04-25T10:22:18;96290;;;6.1;80.5
68965;BME280;56017;48.680;8.998;2023-04-25T10:24:45;96290;;;6.1;80
68965;BME280;56017;48.680;8.998;2023-04-25T10:29:59;96290;;;6.3;79.5
68965;BME280;56017;48.680;8.998;2023-04-25T10:32:25;96290;;;6.4;79.5
68965;BME280;56017;48.680;8.998;2023-04-25T10:34:49;96300;;;6.2;80
68965;BME280;56017;48.680;8.998;2023-04-25T10:37:20;96300;;;6.1;80.5
68965;BME280;56017;48.680;8.998;2023-04-25T10:39:51;96290;;;6.3;80
68965;BME280;56017;48.680;8.998;2023-04-25T10:42:22;96300;;;6.3;79.5
68965;BME280;56017;48.680;8.998;2023-04-25T10:45:01;96300;;;6.3;80
68965;BME280;56017;48.680;8.998;2023-04-25T10:47:34;96310;;;6.6;79.5
68965;BME280;56017;48.680;8.998;2023-04-25T10:49:55;96310;;;6.5;79.5
68965;BME280;56017;48.680;8.998;2023-04-25T10:52:26;96310;;;6.4;80
68965;BME280;56017;48.680;8.998;2023-04-25T10:54:57;96310;;;6.5;80
68965;BME280;56017;48.680;8.998;2023-04-25T10:57:29;96320;;;6.5;79.5
68965;BME280;56017;48.680;8.998;2023-04-25T11:00:00;96320;;;6.6;79.5
68965;BME280;56017;48.680;8.998;2023-04-25T11:02:30;96320;;;6.6;79.5
68965;BME280;56017;48.680;8.998;2023-04-25T11:05:01;96320;;;6.5;79.5
68965;BME280;56017;48.680;8.998;2023-04-25T11:07:43;96320;;;6.5;80
68965;BME280;56017;48.680;8.998;2023-04-25T11:10:03;96330;;;6.7;80
68965;BME280;56017;48.680;8.998;2023-04-25T11:12:34;96330;;;6.8;79.5
68965;BME280;56017;48.680;8.998;2023-04-25T11:15:05;96330;;;6.8;79.5
68965;BME280;56017;48.680;8.998;2023-04-25T11:17:36;96330;;;7.1;79.5
68965;BME280;56017;48.680;8.998;2023-04-25T11:20:07;96330;;;7.3;79
68965;BME280;56017;48.680;8.998;2023-04-25T11:22:38;96330;;;7.3;79
68965;BME280;56017;48.680;8.998;2023-04-25T11:25:09;96330;;;7.3;79
68965;BME280;56017;48.680;8.998;2023-04-25T11:27:55;96330;;;7.1;79.5
68965;BME280;56017;48.680;8.998;2023-04-25T11:30:11;96350;;;7;79.5
68965;BME280;56017;48.680;8.998;2023-04-25T11:32:42;96340;;;6.8;80.5
68965;BME280;56017;48.680;8.998;2023-04-25T11:35:12;96340;;;6.8;80
68965;BME280;56017;48.680;8.998;2023-04-25T11:37:43;96340;;;6.8;80.5
68965;BME280;56017;48.680;8.998;2023-04-25T11:40:14;96340;;;7;80.5
68965;BME280;56017;48.680;8.998;2023-04-25T11:42:52;96350;;;7.1;80
68965;BME280;56017;48.680;8.998;2023-04-25T11:45:16;96350;;;7;80.5
68965;BME280;56017;48.680;8.998;2023-04-25T11:47:47;96350;;;7.3;79.5
68965;BME280;56017;48.680;8.998;2023-04-25T11:50:18;96350;;;7.5;80
68965;BME280;56017;48.680;8.998;2023-04-25T11:52:49;96350;;;7.6;79.5
68965;BME280;56017;48.680;8.998;2023-04-25T11:57:59;96360;;;7.6;80
68965;BME280;56017;48.680;8.998;2023-04-25T12:00:22;96360;;;7.6;80
68965;BME280;56017;48.680;8.998;2023-04-25T12:02:54;96360;;;7.9;80
68965;BME280;56017;48.680;8.998;2023-04-25T12:05:26;96360;;;8.1;80
68965;BME280;56017;48.680;8.998;2023-04-25T12:07:56;96370;;;8.2;80
68965;BME280;56017;48.680;8.998;2023-04-25T12:10:26;96370;;;8.1;79
68965;BME280;56017;48.680;8.998;2023-04-25T12:13:17;96380;;;7.9;80
68965;BME280;56017;48.680;8.998;2023-04-25T12:15:28;96380;;;7.8;80
68965;BME280;56017;48.680;8.998;2023-04-25T12:17:59;96380;;;7.7;80
68965;BME280;56017;48.680;8.998;2023-04-25T12:20:31;96380;;;7.6;80.5
68965;BME280;56017;48.680;8.998;2023-04-25T12:23:01;96380;;;7.9;80
68965;BME280;56017;48.680;8.998;2023-04-25T12:25:40;96380;;;7.9;80
68965;BME280;56017;48.680;8.998;2023-04-25T12:28:19;96380;;;7.6;79.5
68965;BME280;56017;48.680;8.998;2023-04-25T12:30:51;96390;;;7.3;80.5
68965;BME280;56017;48.680;8.998;2023-04-25T12:33:05;96390;;;7.2;80.5
68965;BME280;56017;48.680;8.998;2023-04-25T12:38:21;96390;;;7.2;80.5
68965;BME280;56017;48.680;8.998;2023-04-25T12:40:38;96390;;;7.2;81
68965;BME280;56017;48.680;8.998;2023-04-25T12:43:09;96400;;;7.4;80
68965;BME280;56017;48.680;8.998;2023-04-25T12:45:39;96400;;;7.3;80.5
68965;BME280;56017;48.680;8.998;2023-04-25T12:48:17;96390;;;7.6;80.5
68965;BME280;56017;48.680;8.998;2023-04-25T12:53:13;96400;;;8.2;79.5
68965;BME280;56017;48.680;8.998;2023-04-25T12:55:44;96400;;;8.3;79.5
68965;BME280;56017;48.680;8.998;2023-04-25T12:58:21;96400;;;8.5;79
68965;BME280;56017;48.680;8.998;2023-04-25T13:00:45;96400;;;8.4;79
68965;BME280;56017;48.680;8.998;2023-04-25T13:03:23;96400;;;8.5;79
68965;BME280;56017;48.680;8.998;2023-04-25T13:05:47;96400;;;8.6;79.5
68965;BME280;56017;48.680;8.998;2023-04-25T13:08:19;96400;;;8.9;79.5
68965;BME280;56017;48.680;8.998;2023-04-25T13:10:49;96400;;;9.5;79
68965;BME280;56017;48.680;8.998;2023-04-25T13:13:27;96390;;;9.8;78.5
68965;BME280;56017;48.680;8.998;2023-04-25T13:15:51;96400;;;10;79
68965;BME280;56017;48.680;8.998;2023-04-25T13:18:22;96390;;;10.4;78
68965;BME280;56017;48.680;8.998;2023-04-25T13:23:31;96390;;;10.7;78
68965;BME280;56017;48.680;8.998;2023-04-25T13:25:55;96400;;;10.6;78
68965;BME280;56017;48.680;8.998;2023-04-25T13:28:33;96400;;;10.8;77.5
68965;BME280;56017;48.680;8.998;2023-04-25T13:33:34;96390;;;11.1;78.5
68965;BME280;56017;48.680;8.998;2023-04-25T13:51:05;96400;;;11;78
68965;BME280;56017;48.680;8.998;2023-04-25T14:01:07;96400;;;11;79.5
68965;BME280;56017;48.680;8.998;2023-04-25T14:06:09;96400;;;11.4;79
68965;BME280;56017;48.680;8.998;2023-04-25T14:11:11;96410;;;11.8;78
68965;BME280;56017;48.680;8.998;2023-04-25T14:23:46;96410;;;11.2;79
68965;BME280;56017;48.680;8.998;2023-04-25T14:26:17;96400;;;11.1;79.5
68965;BME280;56017;48.680;8.998;2023-04-25T14:28:48;96410;;;11.5;79
68965;BME280;56017;48.680;8.998;2023-04-25T14:31:19;96410;;;11.6;78
68965;BME280;56017;48.680;8.998;2023-04-25T14:38:53;96420;;;10.6;80
68965;BME280;56017;48.680;8.998;2023-04-25T14:43:55;96420;;;10.8;79
68965;BME280;56017;48.680;8.998;2023-04-25T14:46:25;96410;;;10.9;79
68965;BME280;56017;48.680;8.998;2023-04-25T14:51:26;96400;;;11.1;79
68965;BME280;56017;48.680;8.998;2023-04-25T15:01:30;96410;;;12.2;78
68965;BME280;56017;48.680;8.998;2023-04-25T15:06:33;96410;;;12.8;78
68965;BME280;56017;48.680;8.998;2023-04-25T15:11:34;96400;;;13.1;78.5
68965;BME280;56017;48.680;8.998;2023-04-25T15:16:36;96390;;;13.6;78
68965;BME280;56017;48.680;8.998;2023-04-25T15:21:39;96400;;;12.7;79
68965;BME280;56017;48.680;8.998;2023-04-25T15:24:10;96410;;;12.5;80
68965;BME280;56017;48.680;8.998;2023-04-25T15:29:12;96410;;;12.1;79.5
68965;BME280;56017;48.680;8.998;2023-04-25T15:31:42;96420;;;12;80
68965;BME280;56017;48.680;8.998;2023-04-25T15:34:13;96420;;;11.7;80
68965;BME280;56017;48.680;8.998;2023-04-25T15:36:44;96420;;;11.4;80.5
68965;BME280;56017;48.680;8.998;2023-04-25T15:46:48;96420;;;11.4;80.5
68965;BME280;56017;48.680;8.998;2023-04-25T15:49:20;96430;;;11.8;79.5
68965;BME280;56017;48.680;8.998;2023-04-25T15:51:50;96420;;;12;79
68965;BME280;56017;48.680;8.998;2023-04-25T15:54:21;96420;;;12;79
68965;BME280;56017;48.680;8.998;2023-04-25T15:56:52;96420;;;11.6;79.5
68965;BME280;56017;48.680;8.998;2023-04-25T16:06:56;96430;;;11.1;80
68965;BME280;56017;48.680;8.998;2023-04-25T16:11:58;96430;;;10.8;80.5
68965;BME280;56017;48.680;8.998;2023-04-25T16:19:32;96440;;;10.5;80.5
68965;BME280;56017;48.680;8.998;2023-04-25T16:24:35;96430;;;10.5;80.5
68965;BME280;56017;48.680;8.998;2023-04-25T16:27:04;96430;;;10.7;80.5
68965;BME280;56017;48.680;8.998;2023-04-25T16:29:35;96430;;;11;79.5
68965;BME280;56017;48.680;8.998;2023-04-25T16:32:06;96430;;;10.9;79.5
68965;BME280;56017;48.680;8.998;2023-04-25T16:34:37;96430;;;10.9;80
68965;BME280;56017;48.680;8.998;2023-04-25T16:37:07;96430;;;10.9;79.5
68965;BME280;56017;48.680;8.998;2023-04-25T16:39:39;96430;;;10.8;80
68965;BME280;56017;48.680;8.998;2023-04-25T16:49:43;96440;;;10.5;80
68965;BME280;56017;48.680;8.998;2023-04-25T16:59:46;96450;;;10.2;80
68965;BME280;56017;48.680;8.998;2023-04-25T17:04:55;96450;;;10.3;79.5
68965;BME280;56017;48.680;8.998;2023-04-25T17:14:52;96460;;;10.1;80
68965;BME280;56017;48.680;8.998;2023-04-25T17:17:23;96460;;;10.1;80
68965;BME280;56017;48.680;8.998;2023-04-25T17:22:25;96470;;;10;80
68965;BME280;56017;48.680;8.998;2023-04-25T17:24:56;96470;;;9.9;80
68965;BME280;56017;48.680;8.998;2023-04-25T17:27:27;96480;;;9.9;80
68965;BME280;56017;48.680;8.998;2023-04-25T17:29:58;96480;;;9.9;80
68965;BME280;56017;48.680;8.998;2023-04-25T17:37:31;96490;;;9.6;80
68965;BME280;56017;48.680;8.998;2023-04-25T17:42:33;96480;;;9.5;80
68965;BME280;56017;48.680;8.998;2023-04-25T17:47:35;96500;;;9.6;80
68965;BME280;56017;48.680;8.998;2023-04-25T17:50:06;96510;;;9.6;80
68965;BME280;56017;48.680;8.998;2023-04-25T17:55:08;96520;;;9.3;80
68965;BME280;56017;48.680;8.998;2023-04-25T18:00:10;96520;;;8.9;80
68965;BME280;56017;48.680;8.998;2023-04-25T18:07:42;96530;;;8.4;80.5
68965;BME280;56017;48.680;8.998;2023-04-25T18:10:13;96530;;;8.4;80.5
68965;BME280;56017;48.680;8.998;2023-04-25T18:12:44;96540;;;8.4;80.5
68965;BME280;56017;48.680;8.998;2023-04-25T18:17:46;96540;;;8.4;80.5
68965;BME280;56017;48.680;8.998;2023-04-25T18:22:48;96550;;;8.3;80.5
68965;BME280;56017;48.680;8.998;2023-04-25T18:25:26;96550;;;8.2;80.5
68965;BME280;56017;48.680;8.998;2023-04-25T18:27:50;96560;;;8.3;80
68965;BME280;56017;48.680;8.998;2023-04-25T18:30:21;96550;;;8.4;80
68965;BME280;56017;48.680;8.998;2023-04-25T18:32:52;96560;;;8.4;79.5
68965;BME280;56017;48.680;8.998;2023-04-25T18:40:25;96560;;;8.4;79.5
68965;BME280;56017;48.680;8.998;2023-04-25T18:42:56;96560;;;8.4;79.5
68965;BME280;56017;48.680;8.998;2023-04-25T18:47:58;96570;;;8.3;80
68965;BME280;56017;48.680;8.998;2023-04-25T18:50:36;96570;;;8.4;80